sensor_id;sensor_type;location;lat;lon;timestamp;pressure;altitude;pressure_sealevel;temperature;humidity
21111;BME280;10713;51.912;4.494;2023-02-15T00:01:39;102891.19;;;6.99;100.00
21111;BME280;10713;51.912;4.494;2023-02-15T00:04:06;102883.28;;;6.96;100.00
21111;BME280;10713;51.912;4.494;2023-02-15T00:06:31;102878.81;;;6.89;100.00
21111;BME280;10713;51.912;4.494;2023-02-15T00:08:57;102875.28;;;6.81;100.00
21111;BME280;10713;51.912;4.494;2023-02-15T00:11:23;102865.53;;;6.69;100.00
21111;BME280;10713;51.912;4.494;2023-02-15T00:14:15;102871.63;;;6.68;100.00
21111;BME280;10713;51.912;4.494;2023-02-15T00:16:42;102868.09;;;6.63;100.00
21111;BME280;10713;51.912;4.494;2023-02-15T00:19:09;102862.81;;;6.59;100.00
21111;BME280;10713;51.912;4.494;2023-02-15T00:21:36;102856.72;;;6.61;100.00
21111;BME280;10713;51.912;4.494;2023-02-15T00:24:04;102860.25;;;6.65;100.00
21111;BME280;10713;51.912;4.494;2023-02-15T00:26:30;102862.00;;;6.64;100.00
21111;BME280;10713;51.912;4.494;2023-02-15T00:28:56;102861.19;;;6.70;100.00
21111;BME280;10713;51.912;4.494;2023-02-15T00:31:24;102855.97;;;6.77;100.00
21111;BME280;10713;51.912;4.494;2023-02-15T00:33:49;102848.94;;;6.73;100.00
21111;BME280;10713;51.912;4.494;2023-02-15T00:36:15;102843.66;;;6.69;100.00
21111;BME280;10713;51.912;4.494;2023-02-15T00:38:40;102836.56;;;6.59;100.00
21111;BME280;10713;51.912;4.494;2023-02-15T00:41:07;102854.94;;;6.59;100.00
21111;BME280;10713;51.912;4.494;2023-02-15T00:43:33;102845.28;;;6.58;100.00
21111;BME280;10713;51.912;4.494;2023-02-15T00:46:00;102845.28;;;6.56;100.00
21111;BME280;10713;51.912;4.494;2023-02-15T00:48:25;102849.63;;;6.52;100.00
21111;BME280;10713;51.912;4.494;2023-02-15T00:50:54;102841.75;;;6.51;100.00
21111;BME280;10713;51.912;4.494;2023-02-15T00:53:20;102846.06;;;6.46;100.00
21111;BME280;10713;51.912;4.494;2023-02-15T00:55:46;102857.41;;;6.43;100.00
21111;BME280;10713;51.912;4.494;2023-02-15T00:58:13;102853.94;;;6.44;100.00
21111;BME280;10713;51.912;4.494;2023-02-15T01:00:40;102851.25;;;6.38;100.00
21111;BME280;10713;51.912;4.494;2023-02-15T01:03:06;102839.75;;;6.27;100.00
21111;BME280;10713;51.912;4.494;2023-02-15T01:05:31;102845.78;;;6.20;100.00
21111;BME280;10713;51.912;4.494;2023-02-15T01:07:58;102841.41;;;6.19;100.00
21111;BME280;10713;51.912;4.494;2023-02-15T01:10:23;102839.66;;;6.16;100.00
21111;BME280;10713;51.912;4.494;2023-02-15T01:12:50;102824.72;;;6.11;100.00
21111;BME280;10713;51.912;4.494;2023-02-15T01:15:15;102833.41;;;6.05;100.00
21111;BME280;10713;51.912;4.494;2023-02-15T01:17:41;102836.91;;;6.04;100.00
21111;BME280;10713;51.912;4.494;2023-02-15T01:20:07;102834.31;;;6.07;100.00
21111;BME280;10713;51.912;4.494;2023-02-15T01:22:32;102834.34;;;6.12;100.00
21111;BME280;10713;51.912;4.494;2023-02-15T01:24:58;102831.78;;;6.16;100.00
21111;BME280;10713;51.912;4.494;2023-02-15T01:27:23;102832.69;;;6.20;100.00
21111;BME280;10713;51.912;4.494;2023-02-15T01:29:48;102830.94;;;6.19;100.00
21111;BME280;10713;51.912;4.494;2023-02-15T01:32:14;102832.72;;;6.21;100.00
21111;BME280;10713;51.912;4.494;2023-02-15T01:34:39;102836.22;;;6.23;100.00
21111;BME280;10713;51.912;4.494;2023-02-15T01:37:04;102817.81;;;6.20;100.00
21111;BME280;10713;51.912;4.494;2023-02-15T01:39:30;102815.16;;;6.16;100.00
21111;BME280;10713;51.912;4.494;2023-02-15T01:41:55;102816.91;;;6.17;100.00
21111;BME280;10713;51.912;4.494;2023-02-15T01:47:10;102817.81;;;6.20;100.00
21111;BME280;10713;51.912;4.494;2023-02-15T01:49:38;102813.44;;;6.19;100.00
21111;BME280;10713;51.912;4.494;2023-02-15T01:52:08;102802.91;;;6.15;100.00
21111;BME280;10713;51.912;4.494;2023-02-15T01:54:37;102804.69;;;6.17;100.00
21111;BME280;10713;51.912;4.494;2023-02-15T01:57:13;102798.47;;;6.09;100.00
21111;BME280;10713;51.912;4.494;2023-02-15T01:59:42;102805.53;;;6.15;100.00
21111;BME280;10713;51.912;4.494;2023-02-15T02:02:13;102801.03;;;6.01;100.00
21111;BME280;10713;51.912;4.494;2023-02-15T02:04:52;102797.53;;;6.02;100.00
21111;BME280;10713;51.912;4.494;2023-02-15T02:07:23;102791.34;;;5.96;100.00
21111;BME280;10713;51.912;4.494;2023-02-15T02:09:49;102785.22;;;5.94;100.00
21111;BME280;10713;51.912;4.494;2023-02-15T02:12:19;102782.59;;;5.94;100.00
21111;BME280;10713;51.912;4.494;2023-02-15T02:14:45;102783.56;;;6.06;100.00
21111;BME280;10713;51.912;4.494;2023-02-15T02:17:18;102785.22;;;5.94;100.00
21111;BME280;10713;51.912;4.494;2023-02-15T02:25:12;102774.72;;;5.94;100.00
21111;BME280;10713;51.912;4.494;2023-02-15T02:27:47;102772.88;;;5.88;100.00
21111;BME280;10713;51.912;4.494;2023-02-15T02:36:52;102763.28;;;5.87;100.00
21111;BME280;10713;51.912;4.494;2023-02-15T02:40:03;102759.72;;;5.82;100.00
21111;BME280;10713;51.912;4.494;2023-02-15T02:42:39;102761.38;;;5.74;100.00
21111;BME280;10713;51.912;4.494;2023-02-15T02:45:49;102752.59;;;5.70;100.00
21111;BME280;10713;51.912;4.494;2023-02-15T02:48:19;102751.69;;;5.67;100.00
21111;BME280;10713;51.912;4.494;2023-02-15T02:50:46;102746.38;;;5.63;100.00
21111;BME280;10713;51.912;4.494;2023-02-15T02:53:11;102739.44;;;5.65;100.00
21111;BME280;10713;51.912;4.494;2023-02-15T02:55:44;102736.88;;;5.72;100.00
21111;BME280;10713;51.912;4.494;2023-02-15T02:58:16;102737.81;;;5.75;100.00
21111;BME280;10713;51.912;4.494;2023-02-15T03:05:44;102735.19;;;5.77;100.00
21111;BME280;10713;51.912;4.494;2023-02-15T03:08:14;102740.44;;;5.77;100.00
21111;BME280;10713;51.912;4.494;2023-02-15T03:10:47;102737.81;;;5.77;100.00
21111;BME280;10713;51.912;4.494;2023-02-15T03:13:13;102740.44;;;5.75;100.00
21111;BME280;10713;51.912;4.494;2023-02-15T03:15:40;102740.44;;;5.75;100.00
21111;BME280;10713;51.912;4.494;2023-02-15T03:18:39;102734.34;;;5.79;100.00
21111;BME280;10713;51.912;4.494;2023-02-15T03:21:07;102727.38;;;5.83;100.00
21111;BME280;10713;51.912;4.494;2023-02-15T03:23:49;102722.13;;;5.78;100.00
21111;BME280;10713;51.912;4.494;2023-02-15T03:26:17;102719.41;;;5.71;100.00
21111;BME280;10713;51.912;4.494;2023-02-15T03:28:45;102720.25;;;5.68;100.00
21111;BME280;10713;51.912;4.494;2023-02-15T03:31:15;102720.25;;;5.67;100.00
21111;BME280;10713;51.912;4.494;2023-02-15T03:33:47;102715.81;;;5.62;100.00
21111;BME280;10713;51.912;4.494;2023-02-15T03:38:53;102707.91;;;5.59;100.00
21111;BME280;10713;51.912;4.494;2023-02-15T03:41:27;102708.78;;;5.60;100.00
21111;BME280;10713;51.912;4.494;2023-02-15T03:44:05;102707.09;;;5.62;100.00
21111;BME280;10713;51.912;4.494;2023-02-15T03:46:42;102704.38;;;5.54;100.00
21111;BME280;10713;51.912;4.494;2023-02-15T03:49:14;102701.72;;;5.51;100.00
21111;BME280;10713;51.912;4.494;2023-02-15T03:51:45;102702.59;;;5.50;100.00
21111;BME280;10713;51.912;4.494;2023-02-15T03:54:27;102697.34;;;5.50;100.00
21111;BME280;10713;51.912;4.494;2023-02-15T03:57:26;102698.16;;;5.46;100.00
21111;BME280;10713;51.912;4.494;2023-02-15T04:00:24;102693.72;;;5.40;100.00
21111;BME280;10713;51.912;4.494;2023-02-15T04:03:29;102698.13;;;5.41;100.00
21111;BME280;10713;51.912;4.494;2023-02-15T04:05:57;102687.56;;;5.35;100.00
21111;BME280;10713;51.912;4.494;2023-02-15T04:08:22;102684.94;;;5.34;100.00
21111;BME280;10713;51.912;4.494;2023-02-15T04:11:10;102683.19;;;5.33;100.00
21111;BME280;10713;51.912;4.494;2023-02-15T04:13:36;102680.53;;;5.31;100.00
21111;BME280;10713;51.912;4.494;2023-02-15T04:16:01;102683.19;;;5.33;100.00
21111;BME280;10713;51.912;4.494;2023-02-15T04:18:37;102678.84;;;5.36;100.00
21111;BME280;10713;51.912;4.494;2023-02-15T04:21:23;102673.66;;;5.42;100.00
21111;BME280;10713;51.912;4.494;2023-02-15T04:24:07;102678.94;;;5.46;100.00
21111;BME280;10713;51.912;4.494;2023-02-15T04:26:52;102678.97;;;5.47;100.00
21111;BME280;10713;51.912;4.494;2023-02-15T04:29:21;102680.63;;;5.40;100.00
21111;BME280;10713;51.912;4.494;2023-02-15T04:31:47;102671.94;;;5.41;100.00
21111;BME280;10713;51.912;4.494;2023-02-15T04:34:13;102676.25;;;5.38;100.00
21111;BME280;10713;51.912;4.494;2023-02-15T04:36:39;102681.50;;;5.38;100.00
21111;BME280;10713;51.912;4.494;2023-02-15T04:39:05;102679.72;;;5.37;100.00
21111;BME280;10713;51.912;4.494;2023-02-15T04:41:32;102679.72;;;5.37;100.00
21111;BME280;10713;51.912;4.494;2023-02-15T04:43:58;102677.06;;;5.34;100.00
21111;BME280;10713;51.912;4.494;2023-02-15T04:46:25;102675.34;;;5.36;100.00
21111;BME280;10713;51.912;4.494;2023-02-15T04:48:50;102685.78;;;5.34;100.00
21111;BME280;10713;51.912;4.494;2023-02-15T04:51:15;102681.41;;;5.32;100.00
21111;BME280;10713;51.912;4.494;2023-02-15T04:53:41;102678.81;;;5.33;100.00
21111;BME280;10713;51.912;4.494;2023-02-15T04:56:06;102677.91;;;5.31;100.00
21111;BME280;10713;51.912;4.494;2023-02-15T04:58:31;102668.31;;;5.30;100.00
21111;BME280;10713;51.912;4.494;2023-02-15T05:00:57;102668.28;;;5.27;100.00
21111;BME280;10713;51.912;4.494;2023-02-15T05:03:23;102669.16;;;5.28;100.00
21111;BME280;10713;51.912;4.494;2023-02-15T05:05:49;102668.25;;;5.24;100.00
21111;BME280;10713;51.912;4.494;2023-02-15T05:08:14;102663.00;;;5.24;100.00
21111;BME280;10713;51.912;4.494;2023-02-15T05:10:39;102662.19;;;5.30;100.00
21111;BME280;10713;51.912;4.494;2023-02-15T05:13:05;102656.94;;;5.28;100.00
21111;BME280;10713;51.912;4.494;2023-02-15T05:15:30;102653.41;;;5.26;100.00
21111;BME280;10713;51.912;4.494;2023-02-15T05:17:55;102635.97;;;5.27;100.00
21111;BME280;10713;51.912;4.494;2023-02-15T05:20:21;102648.16;;;5.25;100.00
21111;BME280;10713;51.912;4.494;2023-02-15T05:22:46;102645.50;;;5.23;100.00
21111;BME280;10713;51.912;4.494;2023-02-15T05:25:12;102638.50;;;5.20;100.00
21111;BME280;10713;51.912;4.494;2023-02-15T05:27:55;102641.09;;;5.16;100.00
21111;BME280;10713;51.912;4.494;2023-02-15T05:30:39;102648.91;;;5.14;100.00
21111;BME280;10713;51.912;4.494;2023-02-15T05:33:05;102641.94;;;5.16;100.00
21111;BME280;10713;51.912;4.494;2023-02-15T05:35:32;102639.34;;;5.16;100.00
21111;BME280;10713;51.912;4.494;2023-02-15T05:37:57;102636.63;;;5.09;100.00
21111;BME280;10713;51.912;4.494;2023-02-15T05:40:22;102631.31;;;5.01;100.00
21111;BME280;10713;51.912;4.494;2023-02-15T05:42:48;102633.81;;;4.93;100.00
21111;BME280;10713;51.912;4.494;2023-02-15T05:45:14;102631.13;;;4.89;100.00
21111;BME280;10713;51.912;4.494;2023-02-15T05:47:40;102632.84;;;4.85;100.00
21111;BME280;10713;51.912;4.494;2023-02-15T05:50:06;102638.06;;;4.85;100.00
21111;BME280;10713;51.912;4.494;2023-02-15T05:52:31;102637.16;;;4.83;100.00
21111;BME280;10713;51.912;4.494;2023-02-15T05:54:57;102637.13;;;4.79;100.00
21111;BME280;10713;51.912;4.494;2023-02-15T05:57:23;102632.72;;;4.76;100.00
21111;BME280;10713;51.912;4.494;2023-02-15T05:59:48;102635.34;;;4.76;100.00
21111;BME280;10713;51.912;4.494;2023-02-15T06:02:13;102633.53;;;4.70;100.00
21111;BME280;10713;51.912;4.494;2023-02-15T06:04:39;102633.47;;;4.67;100.00
21111;BME280;10713;51.912;4.494;2023-02-15T06:07:04;102630.78;;;4.63;100.00
21111;BME280;10713;51.912;4.494;2023-02-15T06:09:29;102630.72;;;4.57;100.00
21111;BME280;10713;51.912;4.494;2023-02-15T06:11:55;102628.09;;;4.55;100.00
21111;BME280;10713;51.912;4.494;2023-02-15T06:14:20;102628.09;;;4.55;100.00
21111;BME280;10713;51.912;4.494;2023-02-15T06:16:46;102632.38;;;4.50;100.00
21111;BME280;10713;51.912;4.494;2023-02-15T06:19:11;102625.31;;;4.46;100.00
21111;BME280;10713;51.912;4.494;2023-02-15T06:21:36;102630.50;;;4.41;100.00
21111;BME280;10713;51.912;4.494;2023-02-15T06:24:02;102626.94;;;4.36;100.00
21111;BME280;10713;51.912;4.494;2023-02-15T06:26:27;102633.91;;;4.37;100.00
21111;BME280;10713;51.912;4.494;2023-02-15T06:28:53;102638.59;;;4.60;100.00
21111;BME280;10713;51.912;4.494;2023-02-15T06:31:18;102641.25;;;4.63;100.00
21111;BME280;10713;51.912;4.494;2023-02-15T06:33:44;102634.19;;;4.56;100.00
21111;BME280;10713;51.912;4.494;2023-02-15T06:36:09;102629.88;;;4.59;100.00
21111;BME280;10713;51.912;4.494;2023-02-15T06:38:34;102640.41;;;4.64;100.00
21111;BME280;10713;51.912;4.494;2023-02-15T06:41:00;102629.13;;;4.68;100.00
21111;BME280;10713;51.912;4.494;2023-02-15T06:43:25;102622.25;;;4.76;100.00
21111;BME280;10713;51.912;4.494;2023-02-15T06:45:50;102625.78;;;4.80;100.00
21111;BME280;10713;51.912;4.494;2023-02-15T06:48:16;102622.28;;;4.79;100.00
21111;BME280;10713;51.912;4.494;2023-02-15T06:50:41;102628.50;;;4.89;100.00
21111;BME280;10713;51.912;4.494;2023-02-15T06:53:07;102626.84;;;4.92;100.00
21111;BME280;10713;51.912;4.494;2023-02-15T06:55:32;102620.66;;;4.89;100.00
21111;BME280;10713;51.912;4.494;2023-02-15T06:57:57;102620.56;;;4.80;100.00
21111;BME280;10713;51.912;4.494;2023-02-15T07:00:23;102622.38;;;4.84;100.00
21111;BME280;10713;51.912;4.494;2023-02-15T07:02:55;102625.91;;;4.87;100.00
21111;BME280;10713;51.912;4.494;2023-02-15T07:05:22;102623.28;;;4.89;100.00
21111;BME280;10713;51.912;4.494;2023-02-15T07:07:47;102630.34;;;4.94;100.00
21111;BME280;10713;51.912;4.494;2023-02-15T07:10:12;102619.16;;;5.08;100.00
21111;BME280;10713;51.912;4.494;2023-02-15T07:12:38;102629.81;;;5.23;100.00
21111;BME280;10713;51.912;4.494;2023-02-15T07:15:17;102620.50;;;5.51;100.00
21111;BME280;10713;51.912;4.494;2023-02-15T07:17:43;102618.06;;;5.68;100.00
21111;BME280;10713;51.912;4.494;2023-02-15T07:20:21;102611.16;;;5.76;100.00
21111;BME280;10713;51.912;4.494;2023-02-15T07:22:47;102614.66;;;5.78;100.00
21111;BME280;10713;51.912;4.494;2023-02-15T07:25:13;102607.00;;;6.00;100.00
21111;BME280;10713;51.912;4.494;2023-02-15T07:27:39;102612.31;;;6.07;100.00
21111;BME280;10713;51.912;4.494;2023-02-15T07:30:07;102613.31;;;6.29;100.00
21111;BME280;10713;51.912;4.494;2023-02-15T07:32:33;102607.47;;;6.75;100.00
21111;BME280;10713;51.912;4.494;2023-02-15T07:34:59;102605.84;;;7.02;100.00
21111;BME280;10713;51.912;4.494;2023-02-15T07:37:24;102599.72;;;6.99;100.00
21111;BME280;10713;51.912;4.494;2023-02-15T07:39:50;102588.41;;;7.19;100.00
21111;BME280;10713;51.912;4.494;2023-02-15T07:42:16;102582.25;;;7.17;100.00
21111;BME280;10713;51.912;4.494;2023-02-15T07:44:41;102579.66;;;7.35;100.00
21111;BME280;10713;51.912;4.494;2023-02-15T07:47:06;102584.94;;;7.52;100.00
21111;BME280;10713;51.912;4.494;2023-02-15T07:49:32;102576.19;;;7.81;100.00
21111;BME280;10713;51.912;4.494;2023-02-15T07:51:57;102570.91;;;8.11;100.00
21111;BME280;10713;51.912;4.494;2023-02-15T07:54:23;102572.66;;;8.40;100.00
21111;BME280;10713;51.912;4.494;2023-02-15T07:56:48;102568.22;;;8.47;100.00
21111;BME280;10713;51.912;4.494;2023-02-15T07:59:13;102564.69;;;8.60;100.00
21111;BME280;10713;51.912;4.494;2023-02-15T08:01:39;102555.91;;;8.63;100.00
21111;BME280;10713;51.912;4.494;2023-02-15T08:04:05;102548.91;;;8.55;100.00
21111;BME280;10713;51.912;4.494;2023-02-15T08:06:33;102549.81;;;8.56;100.00
21111;BME280;10713;51.912;4.494;2023-02-15T08:09:00;102554.19;;;8.59;100.00
21111;BME280;10713;51.912;4.494;2023-02-15T08:11:36;102553.28;;;8.60;100.00
21111;BME280;10713;51.912;4.494;2023-02-15T08:14:13;102546.25;;;8.68;100.00
21111;BME280;10713;51.912;4.494;2023-02-15T08:16:52;102546.25;;;8.68;100.00
21111;BME280;10713;51.912;4.494;2023-02-15T08:19:24;102546.28;;;8.55;100.00
21111;BME280;10713;51.912;4.494;2023-02-15T08:22:01;102544.56;;;8.45;100.00
21111;BME280;10713;51.912;4.494;2023-02-15T08:24:32;102543.72;;;8.23;100.00
21111;BME280;10713;51.912;4.494;2023-02-15T08:26:58;102533.19;;;8.12;100.00
21111;BME280;10713;51.912;4.494;2023-02-15T08:29:26;102531.44;;;8.21;100.00
21111;BME280;10713;51.912;4.494;2023-02-15T08:31:57;102527.91;;;8.48;100.00
21111;BME280;10713;51.912;4.494;2023-02-15T08:34:28;102524.91;;;9.12;100.00
21111;BME280;10713;51.912;4.494;2023-02-15T08:36:54;102525.34;;;9.73;100.00
21111;BME280;10713;51.912;4.494;2023-02-15T08:39:19;102524.81;;;10.29;100.00
21111;BME280;10713;51.912;4.494;2023-02-15T08:41:46;102517.22;;;10.76;100.00
21111;BME280;10713;51.912;4.494;2023-02-15T08:44:12;102515.13;;;10.99;100.00
21111;BME280;10713;51.912;4.494;2023-02-15T08:46:41;102522.81;;;11.16;100.00
21111;BME280;10713;51.912;4.494;2023-02-15T08:49:08;102524.13;;;11.45;100.00
21111;BME280;10713;51.912;4.494;2023-02-15T08:51:36;102526.47;;;11.63;100.00
21111;BME280;10713;51.912;4.494;2023-02-15T08:54:05;102520.19;;;11.70;100.00
21111;BME280;10713;51.912;4.494;2023-02-15T08:56:35;102516.31;;;11.90;100.00
21111;BME280;10713;51.912;4.494;2023-02-15T08:59:02;102518.78;;;12.46;100.00
21111;BME280;10713;51.912;4.494;2023-02-15T09:01:29;102518.09;;;12.79;100.00
21111;BME280;10713;51.912;4.494;2023-02-15T09:04:00;102518.94;;;13.19;100.00
21111;BME280;10713;51.912;4.494;2023-02-15T09:06:26;102524.16;;;13.61;100.00
21111;BME280;10713;51.912;4.494;2023-02-15T09:08:52;102514.88;;;14.11;100.00
21111;BME280;10713;51.912;4.494;2023-02-15T09:11:23;102511.66;;;14.62;100.00
21111;BME280;10713;51.912;4.494;2023-02-15T09:14:00;102509.28;;;14.83;100.00
21111;BME280;10713;51.912;4.494;2023-02-15T09:16:28;102509.44;;;15.33;100.00
21111;BME280;10713;51.912;4.494;2023-02-15T09:18:54;102501.63;;;15.55;100.00
21111;BME280;10713;51.912;4.494;2023-02-15T09:21:21;102493.94;;;15.74;100.00
21111;BME280;10713;51.912;4.494;2023-02-15T09:23:49;102502.38;;;15.59;100.00
21111;BME280;10713;51.912;4.494;2023-02-15T09:26:20;102494.59;;;15.54;100.00
21111;BME280;10713;51.912;4.494;2023-02-15T09:28:47;102489.75;;;15.65;100.00
21111;BME280;10713;51.912;4.494;2023-02-15T09:31:16;102492.22;;;16.21;100.00
21111;BME280;10713;51.912;4.494;2023-02-15T09:33:44;102490.44;;;16.46;100.00
21111;BME280;10713;51.912;4.494;2023-02-15T09:38:44;102487.44;;;16.78;97.92
21111;BME280;10713;51.912;4.494;2023-02-15T09:54:52;102487.66;;;16.49;80.14
21111;BME280;10713;51.912;4.494;2023-02-15T10:06:34;102481.63;;;16.20;76.38
21111;BME280;10713;51.912;4.494;2023-02-15T10:20:00;102490.84;;;15.86;87.67
21111;BME280;10713;51.912;4.494;2023-02-15T10:25:36;102493.16;;;15.16;87.70
21111;BME280;10713;51.912;4.494;2023-02-15T10:28:11;102500.81;;;14.98;91.77
21111;BME280;10713;51.912;4.494;2023-02-15T10:30:47;102494.75;;;14.65;92.63
21111;BME280;10713;51.912;4.494;2023-02-15T10:38:51;102496.97;;;13.85;100.00
21111;BME280;10713;51.912;4.494;2023-02-15T10:41:46;102491.06;;;14.08;100.00
21111;BME280;10713;51.912;4.494;2023-02-15T10:44:37;102492.78;;;14.09;100.00
21111;BME280;10713;51.912;4.494;2023-02-15T10:47:34;102478.72;;;14.06;100.00
21111;BME280;10713;51.912;4.494;2023-02-15T10:55:55;102473.53;;;14.32;100.00
21111;BME280;10713;51.912;4.494;2023-02-15T10:58:29;102470.41;;;14.18;100.00
21111;BME280;10713;51.912;4.494;2023-02-15T11:01:17;102467.63;;;13.91;100.00
21111;BME280;10713;51.912;4.494;2023-02-15T11:06:32;102473.72;;;13.25;100.00
21111;BME280;10713;51.912;4.494;2023-02-15T11:09:02;102468.41;;;13.26;100.00
21111;BME280;10713;51.912;4.494;2023-02-15T11:11:35;102470.22;;;13.60;100.00
21111;BME280;10713;51.912;4.494;2023-02-15T11:17:07;102468.41;;;13.93;100.00
21111;BME280;10713;51.912;4.494;2023-02-15T11:19:41;102457.66;;;14.00;100.00
21111;BME280;10713;51.912;4.494;2023-02-15T11:22:10;102460.59;;;13.89;100.00
21111;BME280;10713;51.912;4.494;2023-02-15T11:24:42;102456.41;;;13.80;100.00
21111;BME280;10713;51.912;4.494;2023-02-15T11:27:30;102456.09;;;13.60;100.00
21111;BME280;10713;51.912;4.494;2023-02-15T11:30:04;102455.66;;;13.41;100.00
21111;BME280;10713;51.912;4.494;2023-02-15T11:32:37;102444.38;;;13.33;100.00
21111;BME280;10713;51.912;4.494;2023-02-15T11:35:19;102450.13;;;13.50;100.00
21111;BME280;10713;51.912;4.494;2023-02-15T11:37:53;102444.66;;;13.56;100.00
21111;BME280;10713;51.912;4.494;2023-02-15T11:40:29;102440.34;;;13.52;100.00
21111;BME280;10713;51.912;4.494;2023-02-15T11:43:01;102431.16;;;13.65;100.00
21111;BME280;10713;51.912;4.494;2023-02-15T11:45:30;102426.88;;;13.92;100.00
21111;BME280;10713;51.912;4.494;2023-02-15T11:47:57;102424.69;;;14.07;100.00
21111;BME280;10713;51.912;4.494;2023-02-15T11:50:26;102423.47;;;14.18;100.00
21111;BME280;10713;51.912;4.494;2023-02-15T11:52:56;102422.03;;;14.36;100.00
21111;BME280;10713;51.912;4.494;2023-02-15T11:55:23;102414.88;;;14.40;100.00
21111;BME280;10713;51.912;4.494;2023-02-15T11:57:54;102411.97;;;14.48;100.00
21111;BME280;10713;51.912;4.494;2023-02-15T12:00:34;102412.22;;;14.40;100.00
21111;BME280;10713;51.912;4.494;2023-02-15T12:03:07;102420.03;;;14.45;100.00
21111;BME280;10713;51.912;4.494;2023-02-15T12:05:34;102421.69;;;14.49;100.00
21111;BME280;10713;51.912;4.494;2023-02-15T12:08:03;102409.63;;;14.68;100.00
21111;BME280;10713;51.912;4.494;2023-02-15T12:10:44;102412.44;;;14.62;100.00
21111;BME280;10713;51.912;4.494;2023-02-15T12:13:22;102408.03;;;14.62;100.00
21111;BME280;10713;51.912;4.494;2023-02-15T12:15:53;102404.22;;;14.70;100.00
21111;BME280;10713;51.912;4.494;2023-02-15T12:18:33;102400.31;;;14.81;100.00
21111;BME280;10713;51.912;4.494;2023-02-15T12:21:11;102399.94;;;14.94;100.00
21111;BME280;10713;51.912;4.494;2023-02-15T12:23:47;102393.34;;;15.05;100.00
21111;BME280;10713;51.912;4.494;2023-02-15T12:26:14;102402.31;;;15.01;100.00
21111;BME280;10713;51.912;4.494;2023-02-15T12:28:44;102397.44;;;14.87;98.32
21111;BME280;10713;51.912;4.494;2023-02-15T12:31:27;102397.72;;;14.80;100.00
21111;BME280;10713;51.912;4.494;2023-02-15T12:33:55;102402.34;;;14.73;100.00
21111;BME280;10713;51.912;4.494;2023-02-15T12:36:25;102395.88;;;14.54;100.00
21111;BME280;10713;51.912;4.494;2023-02-15T12:39:17;102405.69;;;14.50;100.00
21111;BME280;10713;51.912;4.494;2023-02-15T12:44:28;102398.06;;;14.39;100.00
21111;BME280;10713;51.912;4.494;2023-02-15T12:47:18;102395.66;;;14.30;100.00
21111;BME280;10713;51.912;4.494;2023-02-15T12:49:45;102395.81;;;14.26;100.00
21111;BME280;10713;51.912;4.494;2023-02-15T12:52:28;102404.66;;;14.26;100.00
21111;BME280;10713;51.912;4.494;2023-02-15T12:54:53;102393.72;;;14.37;100.00
21111;BME280;10713;51.912;4.494;2023-02-15T13:02:41;102380.75;;;14.26;100.00
21111;BME280;10713;51.912;4.494;2023-02-15T13:07:45;102377.50;;;14.45;100.00
21111;BME280;10713;51.912;4.494;2023-02-15T13:10:27;102375.44;;;14.56;100.00
21111;BME280;10713;51.912;4.494;2023-02-15T13:12:55;102377.81;;;14.65;100.00
21111;BME280;10713;51.912;4.494;2023-02-15T13:15:44;102375.06;;;14.68;100.00
21111;BME280;10713;51.912;4.494;2023-02-15T13:18:17;102376.53;;;14.49;100.00
21111;BME280;10713;51.912;4.494;2023-02-15T13:20:46;102381.44;;;14.33;100.00
21111;BME280;10713;51.912;4.494;2023-02-15T13:23:26;102369.25;;;14.26;100.00
21111;BME280;10713;51.912;4.494;2023-02-15T13:25:55;102370.06;;;14.28;100.00
21111;BME280;10713;51.912;4.494;2023-02-15T13:28:24;102368.88;;;14.38;100.00
21111;BME280;10713;51.912;4.494;2023-02-15T13:30:51;102359.81;;;14.45;100.00
21111;BME280;10713;51.912;4.494;2023-02-15T13:33:25;102354.44;;;14.47;100.00
21111;BME280;10713;51.912;4.494;2023-02-15T13:38:51;102355.75;;;14.61;100.00
21111;BME280;10713;51.912;4.494;2023-02-15T13:41:30;102349.69;;;14.58;100.00
21111;BME280;10713;51.912;4.494;2023-02-15T13:47:24;102357.94;;;14.49;100.00
21111;BME280;10713;51.912;4.494;2023-02-15T13:50:15;102359.97;;;14.39;100.00
21111;BME280;10713;51.912;4.494;2023-02-15T13:53:45;102345.84;;;14.38;100.00
21111;BME280;10713;51.912;4.494;2023-02-15T13:55:52;102338.50;;;14.47;100.00
21111;BME280;10713;51.912;4.494;2023-02-15T13:58:39;102339.31;;;14.49;100.00
21111;BME280;10713;51.912;4.494;2023-02-15T14:01:11;102334.25;;;14.41;100.00
21111;BME280;10713;51.912;4.494;2023-02-15T14:04:01;102328.25;;;14.34;100.00
21111;BME280;10713;51.912;4.494;2023-02-15T14:06:51;102319.66;;;14.26;100.00
21111;BME280;10713;51.912;4.494;2023-02-15T14:11:56;102325.53;;;14.36;100.00
21111;BME280;10713;51.912;4.494;2023-02-15T14:14:50;102326.06;;;14.47;100.00
21111;BME280;10713;51.912;4.494;2023-02-15T14:17:43;102331.28;;;14.52;100.00
21111;BME280;10713;51.912;4.494;2023-02-15T14:20:36;102329.69;;;14.45;100.00
21111;BME280;10713;51.912;4.494;2023-02-15T14:25:57;102334.56;;;14.30;100.00
21111;BME280;10713;51.912;4.494;2023-02-15T14:30:57;102340.16;;;14.23;100.00
21111;BME280;10713;51.912;4.494;2023-02-15T14:33:33;102343.13;;;14.12;100.00
21111;BME280;10713;51.912;4.494;2023-02-15T14:36:01;102346.00;;;14.04;100.00
21111;BME280;10713;51.912;4.494;2023-02-15T14:41:30;102341.91;;;13.92;100.00
21111;BME280;10713;51.912;4.494;2023-02-15T14:49:32;102339.09;;;13.67;100.00
21111;BME280;10713;51.912;4.494;2023-02-15T14:52:09;102342.72;;;13.65;100.00
21111;BME280;10713;51.912;4.494;2023-02-15T15:02:03;102333.63;;;13.42;100.00
21111;BME280;10713;51.912;4.494;2023-02-15T15:04:29;102332.59;;;13.14;100.00
21111;BME280;10713;51.912;4.494;2023-02-15T15:07:03;102342.47;;;13.07;100.00